KCTZ

Clinton-Sampson County Airport

Clinton, North Carolina, USA
METAR KCTZ 231555Z AUTO 05003KT 7SM OVC010 19/18 A3049 RMK AO2 T01890181
Observed Flight Rules
Feb-23 @ 15:55 UTC (41 minutes ago) Marginal Visual Flight Rules
Wind Visibility Clouds
50° at 3 knots 7 miles
  • Overcast at 1,000' AGL
Temperatures Readings
Current 19°C / 66°F
Dewpoint 18°C / 64°F
Humidity 94%
Altimeter 30.49" Hg
Pressure 1033 hPa
Elevation 45
METAR KCTZ 231555Z AUTO 05003KT 7SM OVC010 19/18 A3049 RMK AO2 T01890181
Observed Flight Rules
Feb-23 @ 15:55 UTC
(41 minutes ago)
MVFR
Wind Visibility
50° at 3 knots 7 miles
Clouds
  • Overcast at 1,000' AGL
Temperature Dewpoint
19°C / 66°F 18°C / 64°F
Humidity Altimeter Pressure
94% 30.49" Hg 1033 hPa